sensor_id;sensor_type;location;lat;lon;timestamp;pressure;altitude;pressure_sealevel;temperature;humidity
55044;BME280;54902;50.420;18.854;2023-10-19T00:00:00;100737.15;;;4.88;68.84
55044;BME280;54902;50.420;18.854;2023-10-19T00:00:41;100737.15;;;4.88;68.85
55044;BME280;54902;50.420;18.854;2023-10-19T00:01:18;100730.79;;;4.89;68.85
55044;BME280;54902;50.420;18.854;2023-10-19T00:01:54;100725.47;;;4.87;68.89
55044;BME280;54902;50.420;18.854;2023-10-19T00:02:25;100729.03;;;4.88;68.88
55044;BME280;54902;50.420;18.854;2023-10-19T00:02:56;100726.43;;;4.86;68.87
55044;BME280;54902;50.420;18.854;2023-10-19T00:03:29;100730.98;;;4.86;68.88
55044;BME280;54902;50.420;18.854;2023-10-19T00:04:00;100725.57;;;4.86;68.91
55044;BME280;54902;50.420;18.854;2023-10-19T00:04:31;100723.81;;;4.85;68.88
55044;BME280;54902;50.420;18.854;2023-10-19T00:05:06;100730.98;;;4.86;68.92
55044;BME280;54902;50.420;18.854;2023-10-19T00:05:46;100714.84;;;4.84;68.92
55044;BME280;54902;50.420;18.854;2023-10-19T00:06:17;100718.41;;;4.85;68.91
55044;BME280;54902;50.420;18.854;2023-10-19T00:06:48;100721.11;;;4.85;68.92
55044;BME280;54902;50.420;18.854;2023-10-19T00:07:19;100720.26;;;4.84;68.93
55044;BME280;54902;50.420;18.854;2023-10-19T00:07:50;100713.95;;;4.84;68.94
55044;BME280;54902;50.420;18.854;2023-10-19T00:08:27;100718.41;;;4.85;68.96
55044;BME280;54902;50.420;18.854;2023-10-19T00:09:09;100714.94;;;4.83;68.96
55044;BME280;54902;50.420;18.854;2023-10-19T00:09:42;100711.25;;;4.84;68.96
55044;BME280;54902;50.420;18.854;2023-10-19T00:10:18;100709.53;;;4.83;68.97
55044;BME280;54902;50.420;18.854;2023-10-19T00:10:52;100704.12;;;4.83;68.95
55044;BME280;54902;50.420;18.854;2023-10-19T00:11:37;100713.09;;;4.83;68.97
55044;BME280;54902;50.420;18.854;2023-10-19T00:12:11;100704.12;;;4.83;68.99
55044;BME280;54902;50.420;18.854;2023-10-19T00:12:46;100708.63;;;4.82;69.00
55044;BME280;54902;50.420;18.854;2023-10-19T00:13:27;100711.44;;;4.81;69.00
55044;BME280;54902;50.420;18.854;2023-10-19T00:13:59;100704.12;;;4.83;69.00
55044;BME280;54902;50.420;18.854;2023-10-19T00:14:31;100701.41;;;4.83;69.01
55044;BME280;54902;50.420;18.854;2023-10-19T00:15:03;100713.19;;;4.82;69.02
55044;BME280;54902;50.420;18.854;2023-10-19T00:15:36;100705.93;;;4.82;69.03
55044;BME280;54902;50.420;18.854;2023-10-19T00:16:17;100706.04;;;4.81;69.04
55044;BME280;54902;50.420;18.854;2023-10-19T00:16:53;100697.05;;;4.80;69.03
55044;BME280;54902;50.420;18.854;2023-10-19T00:17:37;100695.21;;;4.81;69.05
55044;BME280;54902;50.420;18.854;2023-10-19T00:18:09;100695.21;;;4.81;69.04
55044;BME280;54902;50.420;18.854;2023-10-19T00:18:51;100703.33;;;4.81;69.05
55044;BME280;54902;50.420;18.854;2023-10-19T00:19:23;100688.94;;;4.80;69.05
55044;BME280;54902;50.420;18.854;2023-10-19T00:19:58;100689.80;;;4.81;69.05
55044;BME280;54902;50.420;18.854;2023-10-19T00:20:44;100711.44;;;4.81;69.03
55044;BME280;54902;50.420;18.854;2023-10-19T00:21:23;100693.45;;;4.80;69.06
55044;BME280;54902;50.420;18.854;2023-10-19T00:21:54;100695.21;;;4.81;69.07
55044;BME280;54902;50.420;18.854;2023-10-19T00:22:38;100688.94;;;4.80;69.09
55044;BME280;54902;50.420;18.854;2023-10-19T00:23:09;100691.71;;;4.79;69.09
55044;BME280;54902;50.420;18.854;2023-10-19T00:23:43;100686.30;;;4.79;69.09
55044;BME280;54902;50.420;18.854;2023-10-19T00:24:18;100687.20;;;4.79;69.10
55044;BME280;54902;50.420;18.854;2023-10-19T00:24:53;100688.05;;;4.80;69.10
55044;BME280;54902;50.420;18.854;2023-10-19T00:25:24;100685.45;;;4.78;69.11
55044;BME280;54902;50.420;18.854;2023-10-19T00:25:57;100688.05;;;4.80;69.12
55044;BME280;54902;50.420;18.854;2023-10-19T00:26:29;100688.05;;;4.80;69.11
55044;BME280;54902;50.420;18.854;2023-10-19T00:27:01;100688.05;;;4.80;69.13
55044;BME280;54902;50.420;18.854;2023-10-19T00:27:43;100681.78;;;4.79;69.15
55044;BME280;54902;50.420;18.854;2023-10-19T00:28:14;100687.20;;;4.79;69.13
55044;BME280;54902;50.420;18.854;2023-10-19T00:28:48;100669.20;;;4.78;69.15
55044;BME280;54902;50.420;18.854;2023-10-19T00:29:28;100680.03;;;4.78;69.14
55044;BME280;54902;50.420;18.854;2023-10-19T00:30:09;100670.07;;;4.79;69.16
55044;BME280;54902;50.420;18.854;2023-10-19T00:30:49;100672.77;;;4.79;69.16
55044;BME280;54902;50.420;18.854;2023-10-19T00:31:24;100669.20;;;4.78;69.17
55044;BME280;54902;50.420;18.854;2023-10-19T00:31:59;100676.47;;;4.78;69.18
55044;BME280;54902;50.420;18.854;2023-10-19T00:32:30;100678.18;;;4.79;69.15
55044;BME280;54902;50.420;18.854;2023-10-19T00:33:02;100667.37;;;4.79;69.15
55044;BME280;54902;50.420;18.854;2023-10-19T00:33:34;100661.95;;;4.79;69.18
55044;BME280;54902;50.420;18.854;2023-10-19T00:34:09;100664.66;;;4.79;69.19
55044;BME280;54902;50.420;18.854;2023-10-19T00:34:44;100669.20;;;4.78;69.19
55044;BME280;54902;50.420;18.854;2023-10-19T00:35:24;100669.20;;;4.78;69.22
55044;BME280;54902;50.420;18.854;2023-10-19T00:36:00;100674.63;;;4.78;69.20
55044;BME280;54902;50.420;18.854;2023-10-19T00:36:38;100670.96;;;4.79;69.20
55044;BME280;54902;50.420;18.854;2023-10-19T00:37:10;100671.05;;;4.78;69.22
55044;BME280;54902;50.420;18.854;2023-10-19T00:37:43;100670.07;;;4.79;69.22
55044;BME280;54902;50.420;18.854;2023-10-19T00:38:15;100663.80;;;4.78;69.23
55044;BME280;54902;50.420;18.854;2023-10-19T00:39:00;100666.50;;;4.78;69.24
55044;BME280;54902;50.420;18.854;2023-10-19T00:39:40;100676.47;;;4.78;69.24
55044;BME280;54902;50.420;18.854;2023-10-19T00:40:24;100667.46;;;4.77;69.23
55044;BME280;54902;50.420;18.854;2023-10-19T00:41:08;100671.05;;;4.78;69.24
55044;BME280;54902;50.420;18.854;2023-10-19T00:41:45;100663.80;;;4.78;69.24
55044;BME280;54902;50.420;18.854;2023-10-19T00:42:16;100661.20;;;4.77;69.23
55044;BME280;54902;50.420;18.854;2023-10-19T00:42:56;100660.23;;;4.78;69.24
55044;BME280;54902;50.420;18.854;2023-10-19T00:43:29;100662.05;;;4.77;69.24
55044;BME280;54902;50.420;18.854;2023-10-19T00:44:05;100663.90;;;4.77;69.28
55044;BME280;54902;50.420;18.854;2023-10-19T00:44:42;100658.49;;;4.77;69.25
55044;BME280;54902;50.420;18.854;2023-10-19T00:45:19;100657.52;;;4.78;69.28
55044;BME280;54902;50.420;18.854;2023-10-19T00:45:56;100662.95;;;4.78;69.28
55044;BME280;54902;50.420;18.854;2023-10-19T00:46:28;100660.23;;;4.78;69.30
55044;BME280;54902;50.420;18.854;2023-10-19T00:47:11;100656.63;;;4.77;69.31
55044;BME280;54902;50.420;18.854;2023-10-19T00:47:49;100638.69;;;4.76;69.29
55044;BME280;54902;50.420;18.854;2023-10-19T00:48:24;100655.78;;;4.77;69.33
55044;BME280;54902;50.420;18.854;2023-10-19T00:49:00;100644.95;;;4.77;69.33
55044;BME280;54902;50.420;18.854;2023-10-19T00:49:31;100641.39;;;4.76;69.35
55044;BME280;54902;50.420;18.854;2023-10-19T00:50:03;100649.52;;;4.76;69.37
55044;BME280;54902;50.420;18.854;2023-10-19T00:50:35;100643.21;;;4.76;69.36
55044;BME280;54902;50.420;18.854;2023-10-19T00:51:08;100648.62;;;4.76;69.38
55044;BME280;54902;50.420;18.854;2023-10-19T00:51:55;100643.21;;;4.76;69.38
55044;BME280;54902;50.420;18.854;2023-10-19T00:52:38;100639.65;;;4.75;69.38
55044;BME280;54902;50.420;18.854;2023-10-19T00:53:19;100635.20;;;4.74;69.37
55044;BME280;54902;50.420;18.854;2023-10-19T00:53:51;100644.16;;;4.75;69.37
55044;BME280;54902;50.420;18.854;2023-10-19T00:54:27;100647.76;;;4.75;69.38
55044;BME280;54902;50.420;18.854;2023-10-19T00:55:05;100646.88;;;4.75;69.38
55044;BME280;54902;50.420;18.854;2023-10-19T00:55:38;100642.45;;;4.74;69.36
55044;BME280;54902;50.420;18.854;2023-10-19T00:56:10;100641.46;;;4.75;69.39
55044;BME280;54902;50.420;18.854;2023-10-19T00:56:43;100638.76;;;4.75;69.39
55044;BME280;54902;50.420;18.854;2023-10-19T00:57:19;100647.86;;;4.74;69.40
55044;BME280;54902;50.420;18.854;2023-10-19T00:58:04;100637.90;;;4.74;69.39
55044;BME280;54902;50.420;18.854;2023-10-19T00:58:40;100631.63;;;4.74;69.42
55044;BME280;54902;50.420;18.854;2023-10-19T00:59:12;100639.75;;;4.74;69.43
55044;BME280;54902;50.420;18.854;2023-10-19T00:59:45;100637.04;;;4.74;69.42
55044;BME280;54902;50.420;18.854;2023-10-19T01:00:23;100633.45;;;4.73;69.41
55044;BME280;54902;50.420;18.854;2023-10-19T01:01:05;100634.34;;;4.74;69.43
55044;BME280;54902;50.420;18.854;2023-10-19T01:01:38;100633.45;;;4.73;69.44
55044;BME280;54902;50.420;18.854;2023-10-19T01:02:16;100633.45;;;4.73;69.43
55044;BME280;54902;50.420;18.854;2023-10-19T01:02:58;100625.33;;;4.73;69.45
55044;BME280;54902;50.420;18.854;2023-10-19T01:03:35;100629.88;;;4.73;69.44
55044;BME280;54902;50.420;18.854;2023-10-19T01:04:07;100626.22;;;4.74;69.49
55044;BME280;54902;50.420;18.854;2023-10-19T01:04:38;100628.92;;;4.74;69.50
55044;BME280;54902;50.420;18.854;2023-10-19T01:05:13;100626.32;;;4.72;69.50
55044;BME280;54902;50.420;18.854;2023-10-19T01:05:44;100628.92;;;4.74;69.50
55044;BME280;54902;50.420;18.854;2023-10-19T01:06:19;100623.61;;;4.72;69.50
55044;BME280;54902;50.420;18.854;2023-10-19T01:06:52;100627.17;;;4.73;69.49
55044;BME280;54902;50.420;18.854;2023-10-19T01:07:34;100628.92;;;4.74;69.52
55044;BME280;54902;50.420;18.854;2023-10-19T01:08:09;100625.33;;;4.73;69.53
55044;BME280;54902;50.420;18.854;2023-10-19T01:08:52;100623.61;;;4.72;69.51
55044;BME280;54902;50.420;18.854;2023-10-19T01:09:23;100620.91;;;4.72;69.51
55044;BME280;54902;50.420;18.854;2023-10-19T01:10:02;100625.33;;;4.73;69.53
55044;BME280;54902;50.420;18.854;2023-10-19T01:10:36;100620.91;;;4.72;69.55
55044;BME280;54902;50.420;18.854;2023-10-19T01:11:13;100622.63;;;4.73;69.54
55044;BME280;54902;50.420;18.854;2023-10-19T01:11:46;100627.17;;;4.73;69.54
55044;BME280;54902;50.420;18.854;2023-10-19T01:12:27;100619.91;;;4.73;69.54
55044;BME280;54902;50.420;18.854;2023-10-19T01:13:09;100618.11;;;4.74;69.57
55044;BME280;54902;50.420;18.854;2023-10-19T01:13:40;100615.40;;;4.74;69.57
55044;BME280;54902;50.420;18.854;2023-10-19T01:14:21;100614.41;;;4.75;69.56
55044;BME280;54902;50.420;18.854;2023-10-19T01:15:47;100616.25;;;4.74;69.59
55044;BME280;54902;50.420;18.854;2023-10-19T01:16:20;100612.59;;;4.75;69.59
55044;BME280;54902;50.420;18.854;2023-10-19T01:16:54;100611.70;;;4.75;69.60
55044;BME280;54902;50.420;18.854;2023-10-19T01:17:29;100610.74;;;4.76;69.63
55044;BME280;54902;50.420;18.854;2023-10-19T01:18:06;100609.88;;;4.75;69.62
55044;BME280;54902;50.420;18.854;2023-10-19T01:18:44;100605.33;;;4.76;69.64
55044;BME280;54902;50.420;18.854;2023-10-19T01:19:16;100605.33;;;4.76;69.63
55044;BME280;54902;50.420;18.854;2023-10-19T01:19:51;100607.07;;;4.77;69.65
55044;BME280;54902;50.420;18.854;2023-10-19T01:20:28;100601.66;;;4.77;69.64
55044;BME280;54902;50.420;18.854;2023-10-19T01:21:12;100601.66;;;4.77;69.65
55044;BME280;54902;50.420;18.854;2023-10-19T01:21:44;100601.66;;;4.77;69.65
55044;BME280;54902;50.420;18.854;2023-10-19T01:22:28;100596.25;;;4.77;69.63
55044;BME280;54902;50.420;18.854;2023-10-19T01:23:06;100598.01;;;4.78;69.67
55044;BME280;54902;50.420;18.854;2023-10-19T01:23:49;100587.27;;;4.76;69.66
55044;BME280;54902;50.420;18.854;2023-10-19T01:24:20;100588.04;;;4.78;69.66
55044;BME280;54902;50.420;18.854;2023-10-19T01:25:04;100593.55;;;4.77;69.68
55044;BME280;54902;50.420;18.854;2023-10-19T01:26:31;100591.70;;;4.77;69.66
55044;BME280;54902;50.420;18.854;2023-10-19T01:27:07;100582.63;;;4.78;69.73
55044;BME280;54902;50.420;18.854;2023-10-19T01:27:41;100582.73;;;4.77;69.72
55044;BME280;54902;50.420;18.854;2023-10-19T01:28:12;100587.18;;;4.78;69.72
55044;BME280;54902;50.420;18.854;2023-10-19T01:28:48;100584.47;;;4.78;69.70
55044;BME280;54902;50.420;18.854;2023-10-19T01:29:22;100583.48;;;4.79;69.73
55044;BME280;54902;50.420;18.854;2023-10-19T01:29:57;100579.06;;;4.78;69.72
55044;BME280;54902;50.420;18.854;2023-10-19T01:30:33;100579.06;;;4.78;69.75
55044;BME280;54902;50.420;18.854;2023-10-19T01:31:05;100581.77;;;4.78;69.76
55044;BME280;54902;50.420;18.854;2023-10-19T01:31:37;100579.06;;;4.78;69.76
55044;BME280;54902;50.420;18.854;2023-10-19T01:32:14;100572.66;;;4.79;69.77
55044;BME280;54902;50.420;18.854;2023-10-19T01:32:46;100578.06;;;4.79;69.78
55044;BME280;54902;50.420;18.854;2023-10-19T01:33:17;100575.36;;;4.79;69.76
55044;BME280;54902;50.420;18.854;2023-10-19T01:33:54;100578.06;;;4.79;69.79
55044;BME280;54902;50.420;18.854;2023-10-19T01:34:27;100577.21;;;4.78;69.78
55044;BME280;54902;50.420;18.854;2023-10-19T01:34:58;100569.00;;;4.80;69.80
55044;BME280;54902;50.420;18.854;2023-10-19T01:35:29;100574.40;;;4.80;69.81
55044;BME280;54902;50.420;18.854;2023-10-19T01:36:12;100565.33;;;4.81;69.82
55044;BME280;54902;50.420;18.854;2023-10-19T01:36:57;100569.00;;;4.80;69.82
55044;BME280;54902;50.420;18.854;2023-10-19T01:37:36;100568.14;;;4.79;69.85
55044;BME280;54902;50.420;18.854;2023-10-19T01:38:08;100569.88;;;4.80;69.84
55044;BME280;54902;50.420;18.854;2023-10-19T01:38:39;100570.74;;;4.81;69.85
55044;BME280;54902;50.420;18.854;2023-10-19T01:39:12;100569.00;;;4.80;69.86
55044;BME280;54902;50.420;18.854;2023-10-19T01:39:43;100565.33;;;4.81;69.88
55044;BME280;54902;50.420;18.854;2023-10-19T01:40:16;100567.08;;;4.82;69.86
55044;BME280;54902;50.420;18.854;2023-10-19T01:40:51;100562.63;;;4.81;69.88
55044;BME280;54902;50.420;18.854;2023-10-19T01:41:24;100553.66;;;4.80;69.90
55044;BME280;54902;50.420;18.854;2023-10-19T01:41:57;100556.25;;;4.82;69.89
55044;BME280;54902;50.420;18.854;2023-10-19T01:42:28;100557.20;;;4.81;69.93
55044;BME280;54902;50.420;18.854;2023-10-19T01:43:01;100557.20;;;4.81;69.91
55044;BME280;54902;50.420;18.854;2023-10-19T01:43:33;100559.91;;;4.81;69.92
55044;BME280;54902;50.420;18.854;2023-10-19T01:44:04;100557.99;;;4.83;69.93
55044;BME280;54902;50.420;18.854;2023-10-19T01:44:37;100556.25;;;4.82;69.93
55044;BME280;54902;50.420;18.854;2023-10-19T01:45:08;100558.96;;;4.82;69.94
55044;BME280;54902;50.420;18.854;2023-10-19T01:45:42;100556.25;;;4.82;69.94
55044;BME280;54902;50.420;18.854;2023-10-19T01:46:14;100558.96;;;4.82;69.92
55044;BME280;54902;50.420;18.854;2023-10-19T01:46:54;100548.99;;;4.82;69.97
55044;BME280;54902;50.420;18.854;2023-10-19T01:47:26;100552.59;;;4.83;69.96
55044;BME280;54902;50.420;18.854;2023-10-19T01:47:58;100552.59;;;4.83;69.97
55044;BME280;54902;50.420;18.854;2023-10-19T01:48:31;100556.15;;;4.83;69.99
55044;BME280;54902;50.420;18.854;2023-10-19T01:49:06;100552.59;;;4.83;70.00
55044;BME280;54902;50.420;18.854;2023-10-19T01:49:39;100551.70;;;4.82;70.01
55044;BME280;54902;50.420;18.854;2023-10-19T01:50:10;100551.70;;;4.82;70.00
55044;BME280;54902;50.420;18.854;2023-10-19T01:50:50;100549.95;;;4.81;70.01
55044;BME280;54902;50.420;18.854;2023-10-19T01:51:22;100553.54;;;4.82;69.99
55044;BME280;54902;50.420;18.854;2023-10-19T01:51:55;100546.28;;;4.82;70.02
55044;BME280;54902;50.420;18.854;2023-10-19T01:52:26;100550.84;;;4.82;70.01
55044;BME280;54902;50.420;18.854;2023-10-19T01:52:57;100550.84;;;4.82;70.01
55044;BME280;54902;50.420;18.854;2023-10-19T01:53:30;100547.25;;;4.81;70.02
55044;BME280;54902;50.420;18.854;2023-10-19T01:54:01;100546.39;;;4.81;70.02
55044;BME280;54902;50.420;18.854;2023-10-19T01:54:33;100547.34;;;4.80;70.01
55044;BME280;54902;50.420;18.854;2023-10-19T01:55:09;100544.63;;;4.80;70.00
55044;BME280;54902;50.420;18.854;2023-10-19T01:55:40;100541.95;;;4.80;70.02
55044;BME280;54902;50.420;18.854;2023-10-19T01:56:15;100548.23;;;4.80;70.07
55044;BME280;54902;50.420;18.854;2023-10-19T01:56:47;100549.20;;;4.79;70.00
55044;BME280;54902;50.420;18.854;2023-10-19T01:57:18;100546.49;;;4.79;69.99
55044;BME280;54902;50.420;18.854;2023-10-19T01:57:49;100545.61;;;4.79;70.00
55044;BME280;54902;50.420;18.854;2023-10-19T01:58:19;100543.90;;;4.78;70.02
55044;BME280;54902;50.420;18.854;2023-10-19T01:58:50;100540.30;;;4.77;70.01
55044;BME280;54902;50.420;18.854;2023-10-19T01:59:23;100535.88;;;4.76;69.98
55044;BME280;54902;50.420;18.854;2023-10-19T01:59:57;100534.98;;;4.76;69.99
55044;BME280;54902;50.420;18.854;2023-10-19T02:00:28;100539.54;;;4.75;70.01
55044;BME280;54902;50.420;18.854;2023-10-19T02:01:00;100535.09;;;4.74;70.00
55044;BME280;54902;50.420;18.854;2023-10-19T02:01:31;100529.68;;;4.74;70.00
55044;BME280;54902;50.420;18.854;2023-10-19T02:02:03;100528.92;;;4.72;69.97
55044;BME280;54902;50.420;18.854;2023-10-19T02:02:34;100537.04;;;4.72;69.98
55044;BME280;54902;50.420;18.854;2023-10-19T02:03:07;100530.73;;;4.72;69.97
55044;BME280;54902;50.420;18.854;2023-10-19T02:03:39;100528.99;;;4.71;69.98
55044;BME280;54902;50.420;18.854;2023-10-19T02:04:12;100526.30;;;4.71;69.98
55044;BME280;54902;50.420;18.854;2023-10-19T02:04:44;100514.82;;;4.67;70.10
55044;BME280;54902;50.420;18.854;2023-10-19T02:05:15;100523.69;;;4.69;70.01
55044;BME280;54902;50.420;18.854;2023-10-19T02:05:49;100524.59;;;4.70;69.98
55044;BME280;54902;50.420;18.854;2023-10-19T02:06:25;100524.65;;;4.68;69.96
55044;BME280;54902;50.420;18.854;2023-10-19T02:06:58;100518.38;;;4.68;69.96
55044;BME280;54902;50.420;18.854;2023-10-19T02:07:33;100520.23;;;4.67;69.96
55044;BME280;54902;50.420;18.854;2023-10-19T02:08:06;100517.63;;;4.66;69.96
55044;BME280;54902;50.420;18.854;2023-10-19T02:08:40;100517.63;;;4.66;69.97
55044;BME280;54902;50.420;18.854;2023-10-19T02:09:13;100519.55;;;4.64;69.96
55044;BME280;54902;50.420;18.854;2023-10-19T02:09:56;100524.95;;;4.64;69.93
55044;BME280;54902;50.420;18.854;2023-10-19T02:10:27;100518.68;;;4.63;69.95
55044;BME280;54902;50.420;18.854;2023-10-19T02:10:58;100516.95;;;4.62;69.95
55044;BME280;54902;50.420;18.854;2023-10-19T02:11:33;100517.90;;;4.61;69.93
55044;BME280;54902;50.420;18.854;2023-10-19T02:12:04;100511.63;;;4.61;69.93
55044;BME280;54902;50.420;18.854;2023-10-19T02:12:38;100519.75;;;4.61;69.93
55044;BME280;54902;50.420;18.854;2023-10-19T02:13:12;100515.30;;;4.60;69.92
55044;BME280;54902;50.420;18.854;2023-10-19T02:13:46;100518.00;;;4.60;69.93
55044;BME280;54902;50.420;18.854;2023-10-19T02:14:18;100518.00;;;4.60;69.92
55044;BME280;54902;50.420;18.854;2023-10-19T02:14:52;100510.85;;;4.59;69.94
55044;BME280;54902;50.420;18.854;2023-10-19T02:15:23;100512.69;;;4.59;69.93
55044;BME280;54902;50.420;18.854;2023-10-19T02:15:54;100509.99;;;4.59;69.94
55044;BME280;54902;50.420;18.854;2023-10-19T02:16:27;100508.35;;;4.56;69.96
55044;BME280;54902;50.420;18.854;2023-10-19T02:17:00;100502.95;;;4.56;69.97
55044;BME280;54902;50.420;18.854;2023-10-19T02:17:34;100505.64;;;4.56;69.94
55044;BME280;54902;50.420;18.854;2023-10-19T02:18:05;100505.64;;;4.56;70.01
55044;BME280;54902;50.420;18.854;2023-10-19T02:18:36;100503.90;;;4.55;69.93
55044;BME280;54902;50.420;18.854;2023-10-19T02:19:09;100509.30;;;4.55;69.98
55044;BME280;54902;50.420;18.854;2023-10-19T02:19:40;100498.49;;;4.55;69.97
55044;BME280;54902;50.420;18.854;2023-10-19T02:20:12;100499.45;;;4.54;69.98
55044;BME280;54902;50.420;18.854;2023-10-19T02:20:48;100490.48;;;4.54;70.01
55044;BME280;54902;50.420;18.854;2023-10-19T02:21:23;100492.34;;;4.53;70.02
55044;BME280;54902;50.420;18.854;2023-10-19T02:22:02;100495.02;;;4.53;70.03
55044;BME280;54902;50.420;18.854;2023-10-19T02:22:42;100495.88;;;4.54;70.04
55044;BME280;54902;50.420;18.854;2023-10-19T02:23:14;100495.02;;;4.53;70.04
55044;BME280;54902;50.420;18.854;2023-10-19T02:23:45;100503.14;;;4.53;70.05
55044;BME280;54902;50.420;18.854;2023-10-19T02:24:16;100496.00;;;4.52;70.07
55044;BME280;54902;50.420;18.854;2023-10-19T02:24:47;100487.88;;;4.52;70.09
55044;BME280;54902;50.420;18.854;2023-10-19T02:25:18;100486.92;;;4.53;70.10
55044;BME280;54902;50.420;18.854;2023-10-19T02:25:51;100498.69;;;4.52;70.14
55044;BME280;54902;50.420;18.854;2023-10-19T02:26:24;100495.02;;;4.53;70.16
55044;BME280;54902;50.420;18.854;2023-10-19T02:26:59;100488.83;;;4.51;70.17
55044;BME280;54902;50.420;18.854;2023-10-19T02:27:33;100490.59;;;4.52;70.18
55044;BME280;54902;50.420;18.854;2023-10-19T02:28:05;100492.42;;;4.52;70.15
55044;BME280;54902;50.420;18.854;2023-10-19T02:28:39;100482.46;;;4.52;70.19
55044;BME280;54902;50.420;18.854;2023-10-19T02:29:10;100490.59;;;4.52;70.21
55044;BME280;54902;50.420;18.854;2023-10-19T02:29:43;100490.59;;;4.52;70.21
55044;BME280;54902;50.420;18.854;2023-10-19T02:30:17;100481.62;;;4.52;70.19
55044;BME280;54902;50.420;18.854;2023-10-19T02:30:48;100487.02;;;4.52;70.22
55044;BME280;54902;50.420;18.854;2023-10-19T02:31:22;100487.88;;;4.52;70.22
55044;BME280;54902;50.420;18.854;2023-10-19T02:31:55;100482.46;;;4.52;70.24
55044;BME280;54902;50.420;18.854;2023-10-19T02:32:28;100483.33;;;4.53;70.22
55044;BME280;54902;50.420;18.854;2023-10-19T02:33:00;100488.83;;;4.51;70.23
55044;BME280;54902;50.420;18.854;2023-10-19T02:33:31;100486.92;;;4.53;70.23
55044;BME280;54902;50.420;18.854;2023-10-19T02:34:03;100482.46;;;4.52;70.26
55044;BME280;54902;50.420;18.854;2023-10-19T02:34:35;100477.06;;;4.52;70.26
55044;BME280;54902;50.420;18.854;2023-10-19T02:35:07;100479.76;;;4.52;70.26
55044;BME280;54902;50.420;18.854;2023-10-19T02:35:40;100481.62;;;4.52;70.28
55044;BME280;54902;50.420;18.854;2023-10-19T02:36:14;100479.76;;;4.52;70.25
55044;BME280;54902;50.420;18.854;2023-10-19T02:36:46;100481.51;;;4.53;70.27
55044;BME280;54902;50.420;18.854;2023-10-19T02:37:20;100473.39;;;4.53;70.27
55044;BME280;54902;50.420;18.854;2023-10-19T02:37:51;100479.67;;;4.54;70.32
55044;BME280;54902;50.420;18.854;2023-10-19T02:38:25;100475.21;;;4.53;70.28
55044;BME280;54902;50.420;18.854;2023-10-19T02:39:42;100480.51;;;4.54;70.27
55044;BME280;54902;50.420;18.854;2023-10-19T02:40:14;100475.11;;;4.54;70.28
55044;BME280;54902;50.420;18.854;2023-10-19T02:40:54;100469.70;;;4.54;70.30
55044;BME280;54902;50.420;18.854;2023-10-19T02:41:26;100475.11;;;4.54;70.29
55044;BME280;54902;50.420;18.854;2023-10-19T02:41:57;100476.85;;;4.55;70.30
55044;BME280;54902;50.420;18.854;2023-10-19T02:42:33;100481.41;;;4.55;70.31
55044;BME280;54902;50.420;18.854;2023-10-19T02:43:04;100474.15;;;4.55;70.32
55044;BME280;54902;50.420;18.854;2023-10-19T02:43:36;100478.60;;;4.56;70.32
55044;BME280;54902;50.420;18.854;2023-10-19T02:44:11;100475.89;;;4.56;70.34
55044;BME280;54902;50.420;18.854;2023-10-19T02:44:54;100473.97;;;4.58;70.34
55044;BME280;54902;50.420;18.854;2023-10-19T02:45:25;100475.80;;;4.58;70.36
55044;BME280;54902;50.420;18.854;2023-10-19T02:46:01;100472.13;;;4.59;70.35
55044;BME280;54902;50.420;18.854;2023-10-19T02:46:35;100474.04;;;4.57;70.35
55044;BME280;54902;50.420;18.854;2023-10-19T02:47:09;100474.04;;;4.57;70.38
55044;BME280;54902;50.420;18.854;2023-10-19T02:47:40;100468.57;;;4.58;70.34
55044;BME280;54902;50.420;18.854;2023-10-19T02:48:13;100461.30;;;4.59;70.36
55044;BME280;54902;50.420;18.854;2023-10-19T02:48:44;100464.88;;;4.59;70.38
55044;BME280;54902;50.420;18.854;2023-10-19T02:49:16;100467.57;;;4.59;70.41
55044;BME280;54902;50.420;18.854;2023-10-19T02:49:51;100449.53;;;4.60;70.40
55044;BME280;54902;50.420;18.854;2023-10-19T02:50:26;100459.46;;;4.59;70.44
55044;BME280;54902;50.420;18.854;2023-10-19T02:50:57;100450.38;;;4.60;70.46
55044;BME280;54902;50.420;18.854;2023-10-19T02:51:42;100453.95;;;4.60;70.50
55044;BME280;54902;50.420;18.854;2023-10-19T02:52:16;100444.02;;;4.61;70.52
55044;BME280;54902;50.420;18.854;2023-10-19T02:52:47;100449.43;;;4.61;70.50
55044;BME280;54902;50.420;18.854;2023-10-19T02:53:19;100445.77;;;4.62;70.56
55044;BME280;54902;50.420;18.854;2023-10-19T02:53:50;100451.17;;;4.62;70.56
55044;BME280;54902;50.420;18.854;2023-10-19T02:54:24;100440.35;;;4.62;70.57
55044;BME280;54902;50.420;18.854;2023-10-19T02:54:55;100445.77;;;4.62;70.59
55044;BME280;54902;50.420;18.854;2023-10-19T02:55:31;100447.48;;;4.63;70.58
55044;BME280;54902;50.420;18.854;2023-10-19T02:56:10;100444.77;;;4.63;70.60
55044;BME280;54902;50.420;18.854;2023-10-19T02:56:42;100447.48;;;4.63;70.59
55044;BME280;54902;50.420;18.854;2023-10-19T02:57:13;100438.40;;;4.64;70.61
55044;BME280;54902;50.420;18.854;2023-10-19T02:57:45;100443.80;;;4.64;70.61
55044;BME280;54902;50.420;18.854;2023-10-19T02:58:17;100443.80;;;4.64;70.64
55044;BME280;54902;50.420;18.854;2023-10-19T02:58:48;100440.14;;;4.65;70.63
55044;BME280;54902;50.420;18.854;2023-10-19T02:59:21;100440.99;;;4.65;70.65
55044;BME280;54902;50.420;18.854;2023-10-19T02:59:55;100436.48;;;4.66;70.63
55044;BME280;54902;50.420;18.854;2023-10-19T03:00:26;100444.59;;;4.66;70.63
55044;BME280;54902;50.420;18.854;2023-10-19T03:01:12;100433.77;;;4.66;70.63
55044;BME280;54902;50.420;18.854;2023-10-19T03:01:47;100435.48;;;4.67;70.65
55044;BME280;54902;50.420;18.854;2023-10-19T03:02:18;100426.51;;;4.66;70.63
55044;BME280;54902;50.420;18.854;2023-10-19T03:02:49;100433.66;;;4.67;70.63